Time;durP1;ratioP1;P1;durP2;ratioP2;P2;SDS_P1;SDS_P2;PMS_P1;PMS_P2;Temp;Humidity;BMP_temperature;BMP_pressure;BME280_temperature;BME280_humidity;BME280_pressure;Samples;Min_cycle;Max_cycle;Signal;HPM_P1;HPM_P2
2022/07/30 00:00:40;;;;;;;26.65;18.27;;;;;;;22.99;100.00;101629.00;7399337;19;20007;-55
2022/07/30 00:03:09;;;;;;;21.02;13.32;;;;;;;23.22;100.00;101634.25;7398350;19;20019;-53
2022/07/30 00:05:38;;;;;;;20.60;12.95;;;;;;;22.97;100.00;101630.97;7397211;19;20014;-51
2022/07/30 00:08:07;;;;;;;19.70;13.13;;;;;;;22.81;100.00;101621.53;7396361;19;20021;-49
2022/07/30 00:10:36;;;;;;;17.58;13.05;;;;;;;23.14;100.00;101626.88;7396200;19;20033;-54
2022/07/30 00:13:08;;;;;;;20.70;14.93;;;;;;;22.67;100.00;101632.53;7394053;19;20014;-56
2022/07/30 00:15:37;;;;;;;22.48;13.65;;;;;;;22.85;100.00;101630.13;7396246;19;20018;-55
2022/07/30 00:18:06;;;;;;;23.88;13.82;;;;;;;22.70;100.00;101628.78;7395762;19;20021;-55
2022/07/30 00:20:35;;;;;;;20.52;13.60;;;;;;;22.68;100.00;101625.38;7398605;19;20014;-54
2022/07/30 00:23:05;;;;;;;18.33;12.73;;;;;;;22.91;100.00;101621.63;7395374;19;20021;-54
2022/07/30 00:25:34;;;;;;;20.20;14.15;;;;;;;23.01;100.00;101632.41;7397054;19;20007;-53
2022/07/30 00:28:03;;;;;;;23.98;13.93;;;;;;;23.11;100.00;101633.34;7395952;19;20029;-54
2022/07/30 00:30:34;;;;;;;21.70;15.65;;;;;;;23.04;100.00;101625.91;7395761;19;20007;-54
2022/07/30 00:33:03;;;;;;;19.55;14.52;;;;;;;22.82;100.00;101622.38;7393602;19;20014;-55
2022/07/30 00:35:32;;;;;;;23.88;15.77;;;;;;;22.46;100.00;101622.63;7394138;19;20018;-53
2022/07/30 00:38:01;;;;;;;22.92;13.75;;;;;;;22.64;100.00;101632.81;7394145;19;20373;-54
2022/07/30 00:40:30;;;;;;;17.88;14.32;;;;;;;22.93;100.00;101627.69;7394144;19;20022;-50
2022/07/30 00:42:59;;;;;;;23.67;14.77;;;;;;;22.29;100.00;101629.34;7395197;19;20025;-52
2022/07/30 00:45:29;;;;;;;23.48;15.35;;;;;;;22.57;100.00;101635.13;7394870;19;20011;-49
2022/07/30 00:48:00;;;;;;;20.95;15.52;;;;;;;22.11;100.00;101631.69;7393293;19;20395;-54
2022/07/30 00:50:29;;;;;;;20.10;14.65;;;;;;;22.22;100.00;101625.47;7393746;19;20025;-55
2022/07/30 00:52:58;;;;;;;23.85;15.52;;;;;;;22.19;100.00;101625.69;7395876;19;20025;-52
2022/07/30 00:55:27;;;;;;;23.33;15.38;;;;;;;22.37;100.00;101627.91;7394032;19;20016;-52
2022/07/30 00:57:55;;;;;;;23.15;14.77;;;;;;;22.13;100.00;101624.38;7391856;19;20033;-54
2022/07/30 01:00:25;;;;;;;20.90;13.82;;;;;;;22.17;100.00;101622.31;7391844;19;20062;-53
2022/07/30 01:02:54;;;;;;;23.92;15.60;;;;;;;22.14;100.00;101627.91;7394349;19;20019;-54
2022/07/30 01:05:26;;;;;;;23.85;15.73;;;;;;;21.58;100.00;101626.97;7398036;19;20021;-55
2022/07/30 01:07:55;;;;;;;22.80;14.55;;;;;;;22.11;100.00;101618.31;7392019;19;20042;-54
2022/07/30 01:10:24;;;;;;;19.33;13.70;;;;;;;22.07;100.00;101616.88;7394512;19;20025;-53
2022/07/30 01:12:54;;;;;;;22.08;13.43;;;;;;;21.83;100.00;101619.69;7397090;19;20482;-55
2022/07/30 01:15:23;;;;;;;25.35;14.07;;;;;;;21.72;100.00;101628.56;7395776;19;20503;-47
2022/07/30 01:17:54;;;;;;;20.58;13.00;;;;;;;22.23;100.00;101618.31;7392781;19;20034;-53
2022/07/30 01:20:30;;;;;;;24.35;15.65;;;;;;;21.56;100.00;101612.91;7393757;19;20507;-54
2022/07/30 01:23:06;;;;;;;25.77;16.83;;;;;;;21.57;100.00;101617.25;7393679;19;20392;-57
2022/07/30 01:25:57;;;;;;;23.65;15.50;;;;;;;22.01;100.00;101614.72;7394853;19;20011;-56
2022/07/30 01:28:30;;;;;;;22.48;14.02;;;;;;;22.26;100.00;101626.91;7393750;19;20014;-54
2022/07/30 01:31:00;;;;;;;25.17;16.42;;;;;;;22.24;100.00;101628.88;7394303;19;20475;-53
2022/07/30 01:33:31;;;;;;;22.20;14.40;;;;;;;22.39;100.00;101629.44;7392680;19;20018;-51
2022/07/30 01:36:03;;;;;;;22.38;13.98;;;;;;;22.62;100.00;101624.91;7397434;19;20022;-51
2022/07/30 01:38:34;;;;;;;18.83;13.85;;;;;;;22.90;100.00;101627.94;7391841;19;20048;-52
2022/07/30 01:41:09;;;;;;;19.40;14.95;;;;;;;22.72;100.00;101630.31;7393142;19;20101;-57
2022/07/30 01:43:40;;;;;;;22.35;14.75;;;;;;;22.81;100.00;101620.72;7392522;19;20480;-57
2022/07/30 01:46:10;;;;;;;21.88;14.23;;;;;;;22.81;100.00;101623.38;7393479;19;20515;-55
2022/07/30 01:48:42;;;;;;;20.70;14.38;;;;;;;22.79;100.00;101628.81;7392268;19;20018;-57
2022/07/30 01:51:15;;;;;;;24.10;14.88;;;;;;;22.86;100.00;101631.00;7394002;19;20019;-51
2022/07/30 01:53:51;;;;;;;22.58;16.48;;;;;;;22.60;100.00;101632.19;7393686;19;20388;-56
2022/07/30 01:56:27;;;;;;;24.13;15.93;;;;;;;22.48;100.00;101624.34;7391105;19;20030;-57
2022/07/30 01:58:59;;;;;;;24.30;15.95;;;;;;;22.59;100.00;101621.63;7390922;19;20095;-56
2022/07/30 02:01:29;;;;;;;28.08;16.25;;;;;;;22.64;100.00;101622.13;7392210;19;20356;-57
2022/07/30 02:04:03;;;;;;;21.95;16.30;;;;;;;22.69;100.00;101627.06;7392896;19;20367;-53
2022/07/30 02:06:35;;;;;;;24.45;16.15;;;;;;;22.72;100.00;101632.97;7390876;19;20021;-56
2022/07/30 02:09:08;;;;;;;18.73;14.63;;;;;;;22.78;100.00;101631.63;7394114;19;20023;-56
2022/07/30 02:14:30;;;;;;;27.23;16.40;;;;;;;22.89;100.00;101636.09;7394581;19;20011;-53
2022/07/30 02:17:00;;;;;;;25.88;15.65;;;;;;;22.80;100.00;101632.38;7392207;19;20014;-51
2022/07/30 02:19:38;;;;;;;25.85;17.85;;;;;;;22.31;100.00;101634.56;7390527;19;20015;-55
2022/07/30 02:22:11;;;;;;;31.05;19.10;;;;;;;22.06;100.00;101630.34;7396628;19;20077;-55
2022/07/30 02:24:43;;;;;;;32.72;19.27;;;;;;;22.05;100.00;101634.84;7399852;19;20030;-53
2022/07/30 02:27:18;;;;;;;27.53;18.67;;;;;;;22.15;100.00;101629.63;7394782;19;20018;-50
2022/07/30 02:29:49;;;;;;;31.25;18.80;;;;;;;22.06;100.00;101633.84;7396940;19;20018;-50
2022/07/30 02:32:21;;;;;;;29.23;20.92;;;;;;;21.49;100.00;101630.31;7395787;19;20514;-54
2022/07/30 02:34:57;;;;;;;31.27;20.85;;;;;;;21.70;100.00;101624.31;7395777;19;20078;-52
2022/07/30 02:37:29;;;;;;;26.45;18.25;;;;;;;21.94;100.00;101629.50;7393736;19;20018;-52
2022/07/30 02:39:58;;;;;;;31.55;21.25;;;;;;;21.52;100.00;101622.13;7397092;19;20014;-59
2022/07/30 02:42:33;;;;;;;32.47;19.83;;;;;;;21.52;100.00;101623.91;7395226;19;20070;-52
2022/07/30 02:45:03;;;;;;;27.75;18.80;;;;;;;21.52;100.00;101631.91;7395461;19;20037;-53
2022/07/30 02:47:33;;;;;;;24.88;17.75;;;;;;;21.65;100.00;101629.13;7393118;19;20021;-55
2022/07/30 02:50:08;;;;;;;23.20;17.90;;;;;;;21.89;100.00;101624.56;7395128;19;20025;-50
2022/07/30 02:52:39;;;;;;;32.38;20.33;;;;;;;21.72;100.00;101635.69;7395504;19;20006;-50
2022/07/30 02:55:11;;;;;;;26.70;19.27;;;;;;;21.88;100.00;101643.31;7395777;19;20030;-53
2022/07/30 02:57:45;;;;;;;28.30;18.35;;;;;;;21.75;100.00;101630.97;7397535;19;20015;-50
2022/07/30 03:00:15;;;;;;;25.48;17.80;;;;;;;21.70;100.00;101635.81;7395183;19;20620;-49
2022/07/30 03:02:46;;;;;;;27.95;17.88;;;;;;;22.28;100.00;101638.31;7395892;19;20341;-49
2022/07/30 03:05:16;;;;;;;23.27;17.77;;;;;;;22.01;100.00;101641.41;7396783;19;20014;-50
2022/07/30 03:07:47;;;;;;;28.77;20.38;;;;;;;21.67;100.00;101632.56;7393126;19;20483;-54
2022/07/30 03:10:17;;;;;;;27.92;20.15;;;;;;;21.29;100.00;101637.22;7395290;19;20033;-55
2022/07/30 03:12:51;;;;;;;30.10;21.48;;;;;;;20.87;100.00;101624.34;7395173;19;20065;-50
2022/07/30 03:15:21;;;;;;;26.25;19.98;;;;;;;21.45;100.00;101634.19;7395719;19;20014;-51
2022/07/30 03:17:54;;;;;;;24.42;18.13;;;;;;;21.78;100.00;101628.06;7391444;19;20018;-55
2022/07/30 03:20:28;;;;;;;29.15;20.63;;;;;;;21.50;100.00;101629.34;7393421;19;20507;-52
2022/07/30 03:23:00;;;;;;;31.90;22.77;;;;;;;21.11;100.00;101630.63;7395746;19;20022;-54
2022/07/30 03:25:33;;;;;;;31.70;21.73;;;;;;;21.69;100.00;101636.81;7396452;19;20015;-50
2022/07/30 03:28:07;;;;;;;29.02;21.13;;;;;;;21.46;100.00;101632.38;7397787;19;20508;-52
2022/07/30 03:30:36;;;;;;;32.80;21.67;;;;;;;21.50;100.00;101634.66;7394012;19;20517;-51
2022/07/30 03:33:06;;;;;;;27.02;20.48;;;;;;;21.86;100.00;101632.78;7394416;19;20026;-53
2022/07/30 03:35:36;;;;;;;28.88;21.65;;;;;;;21.86;100.00;101640.78;7394165;19;20376;-55
2022/07/30 03:38:05;;;;;;;36.78;21.92;;;;;;;21.30;100.00;101643.38;7394130;19;20468;-53
2022/07/30 03:40:36;;;;;;;35.45;25.15;;;;;;;20.82;100.00;101642.50;7394250;19;20021;-51
2022/07/30 03:43:08;;;;;;;34.25;22.60;;;;;;;21.25;100.00;101644.56;7393444;19;20035;-55
2022/07/30 03:45:39;;;;;;;30.85;23.17;;;;;;;21.23;100.00;101645.66;7395027;19;20014;-52
2022/07/30 03:48:10;;;;;;;24.92;20.33;;;;;;;21.15;100.00;101645.38;7393841;19;20022;-51
2022/07/30 03:50:44;;;;;;;32.95;22.55;;;;;;;20.73;100.00;101645.81;7395526;19;20013;-50
2022/07/30 03:53:13;;;;;;;25.27;20.02;;;;;;;21.21;100.00;101655.59;7393921;19;20476;-50
2022/07/30 03:56:09;;;;;;;24.27;19.10;;;;;;;21.65;100.00;101654.00;7395201;19;20015;-50
2022/07/30 03:59:03;;;;;;;24.95;18.25;;;;;;;21.50;100.00;101661.34;7397052;19;20019;-51
2022/07/30 04:01:32;;;;;;;27.02;20.95;;;;;;;21.00;100.00;101658.91;7392771;19;20021;-51
2022/07/30 04:04:11;;;;;;;27.05;21.13;;;;;;;21.09;100.00;101658.22;7393512;19;20022;-51
2022/07/30 04:06:42;;;;;;;28.95;21.20;;;;;;;21.19;100.00;101663.72;7392830;19;20015;-52
2022/07/30 04:09:13;;;;;;;24.90;18.85;;;;;;;21.33;100.00;101654.63;7392906;19;20007;-51
2022/07/30 04:11:42;;;;;;;24.67;20.23;;;;;;;21.33;100.00;101649.31;7392768;19;20018;-55
2022/07/30 04:14:18;;;;;;;26.40;19.95;;;;;;;21.41;100.00;101657.56;7393041;19;20035;-53
2022/07/30 04:16:53;;;;;;;32.70;20.95;;;;;;;20.92;100.00;101654.16;7391850;19;20374;-50
2022/07/30 04:19:31;;;;;;;24.05;17.98;;;;;;;21.59;100.00;101646.47;7392720;19;20367;-50
2022/07/30 04:22:02;;;;;;;31.35;18.35;;;;;;;21.69;100.00;101649.28;7393046;19;20465;-50
2022/07/30 04:24:32;;;;;;;;;;;;;;;21.75;100.00;101649.66;7392907;19;20022;-52
2022/07/30 04:27:03;;;;;;;27.35;17.88;;;;;;;21.13;100.00;101650.00;7391649;19;19922;-50
2022/07/30 04:29:36;;;;;;;26.10;18.42;;;;;;;21.34;100.00;101658.16;7392721;19;20007;-51
2022/07/30 04:32:05;;;;;;;21.90;16.58;;;;;;;21.37;100.00;101661.44;7397074;19;20082;-51
2022/07/30 04:34:55;;;;;;;23.85;16.58;;;;;;;21.81;100.00;101666.13;7394330;19;20019;-53
2022/07/30 04:37:44;;;;;;;24.67;17.13;;;;;;;21.83;100.00;101662.38;7390988;19;20021;-50
2022/07/30 04:40:13;;;;;;;26.10;16.10;;;;;;;21.83;100.00;101672.22;7391876;19;20010;-55
2022/07/30 04:42:42;;;;;;;24.00;16.58;;;;;;;21.71;100.00;101668.69;7390833;19;20495;-54
2022/07/30 04:45:18;;;;;;;24.35;16.08;;;;;;;21.88;100.00;101668.22;7391800;19;20015;-52
2022/07/30 04:47:54;;;;;;;25.20;16.60;;;;;;;21.70;100.00;101667.81;7393517;19;20377;-51
2022/07/30 04:50:26;;;;;;;22.15;15.65;;;;;;;21.72;100.00;101681.03;7393102;19;20011;-53
2022/07/30 04:52:57;;;;;;;33.05;22.70;;;;;;;21.53;100.00;101682.47;7391363;19;20230;-53
2022/07/30 04:55:30;;;;;;;32.08;17.38;;;;;;;21.91;100.00;101683.97;7391690;19;20018;-50
2022/07/30 04:58:01;;;;;;;27.42;15.82;;;;;;;22.06;100.00;101689.91;7389228;19;20019;-51
2022/07/30 05:00:35;;;;;;;;;;;;;;;22.06;100.00;101691.72;7391473;19;20102;-54
2022/07/30 05:03:06;;;;;;;21.42;14.38;;;;;;;22.24;100.00;101690.28;7391057;19;20019;-50
2022/07/30 05:05:35;;;;;;;20.50;15.73;;;;;;;22.23;100.00;101693.91;7395067;19;20018;-54
2022/07/30 05:08:06;;;;;;;21.25;14.57;;;;;;;22.26;100.00;101693.66;7390571;19;20395;-52
2022/07/30 05:10:35;;;;;;;21.60;15.23;;;;;;;22.08;100.00;101692.47;7391047;19;20010;-51
2022/07/30 05:13:04;;;;;;;21.75;14.88;;;;;;;21.98;100.00;101703.03;7390169;19;20015;-52
2022/07/30 05:15:35;;;;;;;23.55;13.68;;;;;;;22.07;100.00;101699.63;7390941;19;20018;-51
2022/07/30 05:18:06;;;;;;;23.73;14.63;;;;;;;22.15;100.00;101701.69;7389934;19;20018;-49
2022/07/30 05:20:37;;;;;;;16.60;12.93;;;;;;;21.78;100.00;101702.75;7391775;19;20522;-50
2022/07/30 05:23:16;;;;;;;18.63;13.27;;;;;;;21.80;100.00;101702.63;7390860;19;20482;-52
2022/07/30 05:25:54;;;;;;;20.08;14.52;;;;;;;22.03;100.00;101702.66;7390342;19;20021;-54
2022/07/30 05:28:32;;;;;;;19.58;14.88;;;;;;;22.05;100.00;101703.38;7389878;19;20014;-54
2022/07/30 05:31:08;;;;;;;21.02;14.13;;;;;;;21.86;100.00;101706.66;7389950;19;20022;-53
2022/07/30 05:33:38;;;;;;;19.88;13.25;;;;;;;22.16;100.00;101708.72;7390853;19;20014;-55
2022/07/30 05:36:07;;;;;;;18.67;12.70;;;;;;;22.19;100.00;101713.81;7390721;19;20034;-54
2022/07/30 05:38:40;;;;;;;21.48;13.32;;;;;;;22.27;100.00;101711.38;7389322;19;20109;-55
2022/07/30 05:41:27;;;;;;;27.70;14.23;;;;;;;22.44;100.00;101718.06;7391210;19;20022;-52
2022/07/30 05:44:15;;;;;;;15.30;13.00;;;;;;;22.28;100.00;101728.25;7390152;19;20605;-51
2022/07/30 05:46:48;;;;;;;17.45;12.80;;;;;;;22.34;100.00;101725.13;7388812;19;20014;-55
2022/07/30 05:49:16;;;;;;;13.10;11.37;;;;;;;22.29;100.00;101716.59;7389690;19;20107;-55
2022/07/30 05:51:45;;;;;;;17.35;12.25;;;;;;;22.13;100.00;101716.97;7389788;19;20371;-54
2022/07/30 05:54:14;;;;;;;21.70;12.85;;;;;;;22.19;100.00;101711.13;7395890;19;20026;-53
2022/07/30 05:57:04;;;;;;;19.73;12.05;;;;;;;22.50;100.00;101722.06;7395095;19;20018;-55
2022/07/30 05:59:35;;;;;;;16.90;11.82;;;;;;;22.57;100.00;101719.75;7396306;19;20007;-52
2022/07/30 06:02:32;;;;;;;19.60;11.80;;;;;;;22.18;100.00;101724.59;7396926;19;20015;-53
2022/07/30 06:05:21;;;;;;;16.25;11.63;;;;;;;22.57;100.00;101722.44;7396178;19;20015;-53
2022/07/30 06:07:50;;;;;;;23.15;11.00;;;;;;;22.05;100.00;101727.41;7396161;19;20492;-52
2022/07/30 06:10:23;;;;;;;16.92;11.20;;;;;;;22.09;100.00;101735.06;7398693;19;20416;-52
2022/07/30 06:12:51;;;;;;;17.80;11.32;;;;;;;22.32;100.00;101731.53;7398216;19;20801;-55
2022/07/30 06:15:22;;;;;;;19.95;11.20;;;;;;;21.82;100.00;101723.88;7394160;19;20014;-55
2022/07/30 06:17:54;;;;;;;16.60;11.20;;;;;;;22.04;100.00;101731.91;7394405;19;20030;-49
2022/07/30 06:20:50;;;;;;;16.10;11.23;;;;;;;21.84;100.00;101730.78;7397656;19;20006;-53
2022/07/30 06:23:27;;;;;;;16.83;10.85;;;;;;;22.12;100.00;101734.81;7396549;19;20018;-55
2022/07/30 06:26:12;;;;;;;16.05;10.23;;;;;;;22.36;100.00;101743.69;7397220;19;20014;-53
2022/07/30 06:28:42;;;;;;;14.77;10.68;;;;;;;22.34;100.00;101740.28;7395428;19;20014;-54
2022/07/30 06:31:26;;;;;;;14.13;10.63;;;;;;;21.98;100.00;101731.50;7395997;19;20027;-55
2022/07/30 06:33:58;;;;;;;16.27;10.38;;;;;;;22.20;100.00;101744.88;7398975;19;20026;-54
2022/07/30 06:36:30;;;;;;;18.42;8.93;;;;;;;22.13;100.00;101746.34;7395861;19;20014;-55
2022/07/30 06:39:09;;;;;;;16.85;8.85;;;;;;;22.62;100.00;101752.28;7396239;19;20104;-54
2022/07/30 06:42:17;;;;;;;12.93;9.10;;;;;;;22.80;100.00;101756.13;7395455;19;20094;-53
2022/07/30 06:45:04;;;;;;;12.65;8.05;;;;;;;22.24;100.00;101753.50;7395218;19;20062;-50
2022/07/30 06:47:53;;;;;;;13.13;9.32;;;;;;;22.66;100.00;101752.91;7394207;19;20055;-54
2022/07/30 06:50:24;;;;;;;13.88;8.70;;;;;;;22.55;100.00;101761.75;7397126;19;20017;-55
2022/07/30 06:52:53;;;;;;;14.20;8.32;;;;;;;22.21;100.00;101759.94;7397362;19;20018;-54
2022/07/30 06:55:24;;;;;;;14.43;7.82;;;;;;;22.54;100.00;101763.59;7393656;19;20006;-50
2022/07/30 06:57:55;;;;;;;13.10;8.40;;;;;;;22.54;100.00;101760.91;7394341;19;20018;-50
2022/07/30 07:00:50;;;;;;;13.50;7.45;;;;;;;22.93;100.00;101757.81;7396381;19;20250;-53
2022/07/30 07:03:20;;;;;;;10.52;7.60;;;;;;;22.78;100.00;101759.91;7395692;19;20011;-53
2022/07/30 07:05:52;;;;;;;11.30;7.30;;;;;;;23.09;100.00;101755.56;7394996;19;20021;-54
2022/07/30 07:08:21;;;;;;;14.90;8.63;;;;;;;22.98;100.00;101758.25;7395049;19;20531;-54
2022/07/30 07:10:54;;;;;;;13.60;7.55;;;;;;;23.19;100.00;101763.69;7395866;19;20018;-52
2022/07/30 07:13:29;;;;;;;11.70;7.22;;;;;;;22.92;100.00;101770.31;7395065;19;20022;-50
2022/07/30 07:16:00;;;;;;;14.05;6.88;;;;;;;22.83;100.00;101760.38;7398023;19;20014;-51
2022/07/30 07:18:31;;;;;;;10.90;6.53;;;;;;;22.29;100.00;101754.84;7395235;19;20067;-50
2022/07/30 07:21:07;;;;;;;11.93;6.10;;;;;;;22.72;100.00;101763.91;7395761;19;20121;-53
2022/07/30 07:23:37;;;;;;;11.48;6.28;;;;;;;22.57;100.00;101760.66;7394198;19;20022;-54
2022/07/30 07:26:05;;;;;;;14.48;6.50;;;;;;;22.95;100.00;101759.38;7394180;19;20014;-54
2022/07/30 07:28:34;;;;;;;10.27;6.25;;;;;;;23.21;98.35;101766.25;7394483;19;20130;-49
2022/07/30 07:31:04;;;;;;;11.70;6.50;;;;;;;23.17;94.15;101770.13;7395508;19;20740;-50
2022/07/30 07:33:33;;;;;;;9.75;5.90;;;;;;;23.26;93.47;101762.22;7400158;19;20513;-55
2022/07/30 07:36:02;;;;;;;9.30;5.70;;;;;;;23.12;92.33;101766.03;7394882;19;20018;-52
2022/07/30 07:38:36;;;;;;;9.75;5.18;;;;;;;23.19;93.30;101769.03;7395699;19;20436;-50
2022/07/30 07:41:07;;;;;;;12.68;6.07;;;;;;;22.60;91.37;101771.09;7396498;19;20017;-50
2022/07/30 07:43:36;;;;;;;13.63;6.32;;;;;;;22.17;94.58;101777.16;7395334;19;20719;-52
2022/07/30 07:46:05;;;;;;;12.68;6.03;;;;;;;22.18;99.11;101773.53;7395469;19;20010;-50
2022/07/30 07:48:36;;;;;;;10.95;6.30;;;;;;;22.40;97.18;101771.84;7342098;19;20014;-50
2022/07/30 07:51:19;;;;;;;9.57;6.27;;;;;;;22.74;95.44;101774.50;7396750;19;20007;-51
2022/07/30 07:53:51;;;;;;;9.23;5.65;;;;;;;23.25;95.11;101773.88;7395646;19;20818;-50
2022/07/30 07:56:20;;;;;;;10.57;5.97;;;;;;;23.53;89.21;101784.09;7396671;19;20025;-51
2022/07/30 07:58:52;;;;;;;12.70;5.22;;;;;;;23.47;87.73;101778.28;7394576;19;20014;-55
2022/07/30 08:01:22;;;;;;;8.88;5.28;;;;;;;23.65;84.37;101785.72;7395962;19;20007;-54
2022/07/30 08:04:13;;;;;;;9.90;4.70;;;;;;;23.70;81.30;101786.22;7396431;19;20017;-56
2022/07/30 08:07:15;;;;;;;10.88;5.63;;;;;;;22.84;85.09;101775.44;7392722;19;20042;-51
2022/07/30 08:10:08;;;;;;;8.48;4.70;;;;;;;23.15;84.08;101773.81;7394087;19;20018;-50
2022/07/30 08:13:06;;;;;;;7.68;4.85;;;;;;;23.73;82.12;101775.22;7396514;19;20049;-54
2022/07/30 08:16:09;;;;;;;9.75;5.30;;;;;;;24.09;76.72;101774.91;7394729;19;20026;-53
2022/07/30 08:19:07;;;;;;;9.07;4.68;;;;;;;23.54;73.54;101778.63;7391434;19;20023;-47
2022/07/30 08:21:40;;;;;;;9.18;4.88;;;;;;;23.37;76.45;101776.50;7393327;19;20030;-45
2022/07/30 08:24:10;;;;;;;9.30;4.72;;;;;;;23.59;73.74;101770.22;7391360;19;20015;-44
2022/07/30 08:26:41;;;;;;;8.60;4.43;;;;;;;23.70;69.58;101767.47;7392935;19;20043;-46
2022/07/30 08:29:10;;;;;;;5.63;4.50;;;;;;;23.76;72.34;101768.78;7391693;19;20026;-48
2022/07/30 08:31:39;;;;;;;7.43;4.45;;;;;;;23.89;74.76;101773.97;7391322;19;20018;-45
2022/07/30 08:34:08;;;;;;;9.50;4.93;;;;;;;24.02;74.28;101775.41;7391760;19;20036;-45
2022/07/30 08:36:37;;;;;;;6.93;4.13;;;;;;;24.26;72.08;101768.94;7390292;19;20014;-48
2022/07/30 08:39:06;;;;;;;10.75;4.63;;;;;;;24.61;71.47;101769.50;7391650;19;20022;-43
2022/07/30 08:41:37;;;;;;;10.05;5.63;;;;;;;24.18;70.51;101764.22;7390588;19;20014;-45
2022/07/30 08:44:12;;;;;;;11.70;5.57;;;;;;;23.84;71.35;101774.28;7390909;19;20073;-47
2022/07/30 08:46:43;;;;;;;8.88;4.63;;;;;;;24.11;71.31;101763.06;7390140;19;20011;-43
2022/07/30 08:49:25;;;;;;;13.90;4.22;;;;;;;23.85;68.22;101766.13;7388728;19;20548;-47
2022/07/30 08:51:55;;;;;;;5.95;3.50;;;;;;;23.93;61.75;101759.34;7391894;19;20018;-44
2022/07/30 08:54:45;;;;;;;7.60;4.10;;;;;;;23.90;64.89;101770.28;7392741;19;20025;-44
2022/07/30 08:57:14;;;;;;;5.82;4.00;;;;;;;23.76;60.94;101774.13;7391020;19;20474;-43
2022/07/30 08:59:47;;;;;;;11.07;3.45;;;;;;;24.20;61.02;101774.81;7388403;19;20048;-44
2022/07/30 09:02:15;;;;;;;6.07;3.30;;;;;;;24.66;62.29;101773.47;7389410;19;20021;-43
2022/07/30 09:04:59;;;;;;;7.53;3.88;;;;;;;25.16;61.21;101775.22;7390376;19;20030;-48
2022/07/30 09:07:28;;;;;;;6.13;3.78;;;;;;;24.60;60.09;101781.19;7389202;19;20031;-44
2022/07/30 09:09:58;;;;;;;5.25;3.63;;;;;;;24.75;60.52;101779.81;7387766;19;20051;-46
2022/07/30 09:12:36;;;;;;;9.70;4.45;;;;;;;24.89;63.40;101781.28;7393183;19;20483;-44
2022/07/30 09:15:10;;;;;;;7.30;3.72;;;;;;;24.88;58.70;101787.63;7390075;19;20024;-44
2022/07/30 09:17:56;;;;;;;6.95;3.20;;;;;;;25.08;62.03;101782.28;7390558;19;20019;-47
2022/07/30 09:20:30;;;;;;;7.18;3.40;;;;;;;25.03;59.04;101780.88;7389657;19;20014;-45
2022/07/30 09:23:02;;;;;;;7.80;3.35;;;;;;;25.16;60.74;101769.00;7389925;19;20022;-45
2022/07/30 09:26:00;;;;;;;5.63;3.22;;;;;;;24.75;55.95;101782.50;7392663;19;20095;-45
2022/07/30 09:28:48;;;;;;;6.05;3.53;;;;;;;25.09;58.19;101782.16;7392070;19;20035;-45
2022/07/30 09:31:20;;;;;;;6.57;3.63;;;;;;;25.45;58.35;101771.72;7394239;19;20341;-44
2022/07/30 09:34:26;;;;;;;7.07;3.30;;;;;;;25.43;56.25;101775.53;7393206;19;20045;-45
2022/07/30 09:36:55;;;;;;;6.68;3.42;;;;;;;25.35;54.11;101768.22;7392647;19;20101;-44
2022/07/30 09:39:33;;;;;;;9.30;3.58;;;;;;;25.32;56.13;101781.91;7390490;19;20026;-51
2022/07/30 09:42:23;;;;;;;4.40;2.53;;;;;;;25.04;49.73;101785.25;7392073;19;20127;-45
2022/07/30 09:44:54;;;;;;;7.18;3.10;;;;;;;25.11;52.14;101792.72;7390354;19;20021;-44
2022/07/30 09:47:36;;;;;;;4.50;2.88;;;;;;;25.49;51.35;101780.31;7391677;19;20113;-44
2022/07/30 09:50:08;;;;;;;9.20;3.15;;;;;;;25.23;54.01;101783.53;7386266;19;20110;-44
2022/07/30 09:52:37;;;;;;;6.10;3.33;;;;;;;25.44;55.27;101778.06;7388463;19;20019;-45
2022/07/30 09:55:09;;;;;;;10.18;3.53;;;;;;;25.78;55.49;101777.63;7389102;19;20017;-44
2022/07/30 09:57:55;;;;;;;4.43;3.20;;;;;;;25.99;54.95;101781.94;7388020;19;20091;-44
2022/07/30 10:00:26;;;;;;;4.70;3.25;;;;;;;26.03;52.76;101781.56;7387423;19;20014;-44
2022/07/30 10:03:21;;;;;;;5.85;3.08;;;;;;;25.98;51.35;101783.78;7391972;19;20053;-44
2022/07/30 10:06:08;;;;;;;6.10;2.72;;;;;;;25.88;49.95;101785.66;7389101;19;20026;-44
2022/07/30 10:08:42;;;;;;;5.78;2.65;;;;;;;25.82;50.65;101784.38;7386908;19;20022;-45
2022/07/30 10:11:14;;;;;;;8.93;2.45;;;;;;;26.04;50.84;101785.91;7387767;19;20351;-45
2022/07/30 10:13:44;;;;;;;8.68;3.25;;;;;;;25.95;51.49;101791.25;7387611;19;20006;-47
2022/07/30 10:16:13;;;;;;;7.53;2.70;;;;;;;25.46;51.10;101783.28;7388056;19;20485;-45
2022/07/30 10:18:46;;;;;;;8.43;3.00;;;;;;;25.66;49.78;101776.94;7389215;19;20021;-47
2022/07/30 10:21:44;;;;;;;5.07;2.83;;;;;;;26.03;50.07;101778.00;7388468;19;20048;-47
2022/07/30 10:24:39;;;;;;;6.05;2.35;;;;;;;26.31;44.70;101770.81;7388368;19;20017;-44
2022/07/30 10:27:27;;;;;;;4.60;2.17;;;;;;;26.19;42.73;101770.19;7388530;19;20039;-45
2022/07/30 10:30:07;;;;;;;6.15;3.03;;;;;;;25.99;48.97;101771.19;7387086;19;20022;-47
2022/07/30 10:32:39;;;;;;;7.57;3.30;;;;;;;26.15;49.98;101767.91;7388354;19;20022;-44
2022/07/30 10:35:11;;;;;;;6.30;2.80;;;;;;;26.17;49.25;101765.94;7387686;19;20030;-46
2022/07/30 10:37:44;;;;;;;7.05;2.95;;;;;;;26.12;44.68;101770.91;7389071;19;20359;-47
2022/07/30 10:40:21;;;;;;;8.02;2.83;;;;;;;26.24;42.60;101772.41;7386055;19;20357;-47
2022/07/30 10:43:10;;;;;;;5.72;2.58;;;;;;;26.23;44.94;101768.88;7395792;19;20035;-49
2022/07/30 10:45:48;;;;;;;7.82;2.40;;;;;;;26.79;45.50;101763.50;7396074;19;20022;-47
2022/07/30 10:48:18;;;;;;;3.70;2.58;;;;;;;26.34;43.25;101762.47;7394584;19;20022;-45
2022/07/30 10:50:55;;;;;;;6.50;2.60;;;;;;;26.63;43.69;101772.22;7396063;19;20377;-45
2022/07/30 10:53:34;;;;;;;3.38;2.22;;;;;;;26.74;42.16;101766.66;7395864;19;20018;-44
2022/07/30 10:56:15;;;;;;;5.25;2.50;;;;;;;26.83;40.91;101772.97;7394072;19;20043;-45
2022/07/30 10:58:59;;;;;;;3.22;1.95;;;;;;;27.19;41.46;101764.91;7397184;19;20015;-44
2022/07/30 11:02:03;;;;;;;3.25;1.85;;;;;;;27.09;39.68;101770.38;7396006;19;20015;-47
2022/07/30 11:04:32;;;;;;;4.70;1.83;;;;;;;27.59;41.66;101766.25;7393059;19;20026;-46
2022/07/30 11:07:31;;;;;;;3.97;1.85;;;;;;;27.05;39.69;101774.38;7395013;19;20025;-44
2022/07/30 11:10:02;;;;;;;2.55;1.98;;;;;;;27.04;39.57;101764.59;7391956;19;20022;-45
2022/07/30 11:12:56;;;;;;;3.78;2.03;;;;;;;26.87;39.97;101766.28;7397675;19;20494;-47
2022/07/30 11:15:25;;;;;;;3.35;1.88;;;;;;;27.07;40.14;101768.84;7393838;19;20019;-47
2022/07/30 11:18:09;;;;;;;4.03;2.50;;;;;;;26.94;41.46;101764.69;7394997;19;20018;-45
2022/07/30 11:20:38;;;;;;;5.07;2.22;;;;;;;27.06;41.86;101767.97;7391881;19;20018;-46
2022/07/30 11:23:34;;;;;;;3.83;2.35;;;;;;;27.11;42.16;101771.06;7395415;19;20010;-46
2022/07/30 11:26:03;;;;;;;3.40;2.20;;;;;;;27.47;41.75;101767.53;7396121;19;20018;-44
2022/07/30 11:28:37;;;;;;;4.47;2.10;;;;;;;27.89;40.25;101760.59;7395413;19;20007;-44
2022/07/30 11:31:27;;;;;;;4.13;2.15;;;;;;;27.80;40.73;101755.13;7394570;19;20014;-47
2022/07/30 11:34:28;;;;;;;3.00;2.13;;;;;;;28.40;40.04;101769.63;7396657;19;20107;-44
2022/07/30 11:37:09;;;;;;;3.38;2.13;;;;;;;28.32;38.99;101774.97;7391991;19;20017;-44
2022/07/30 11:40:08;;;;;;;3.70;2.13;;;;;;;28.75;40.18;101767.72;7393413;19;20032;-45
2022/07/30 11:42:41;;;;;;;5.65;2.35;;;;;;;29.10;38.26;101773.00;7394224;19;20015;-45
2022/07/30 11:45:29;;;;;;;9.05;3.10;;;;;;;28.74;39.66;101763.38;7394258;19;20026;-44
2022/07/30 11:48:01;;;;;;;4.28;2.35;;;;;;;28.58;39.60;101769.50;7393892;19;20014;-46
2022/07/30 11:50:33;;;;;;;6.95;2.20;;;;;;;28.25;40.01;101761.28;7390729;19;20022;-44